Time;durP1;ratioP1;P1;durP2;ratioP2;P2;SDS_P1;SDS_P2;PMS_P1;PMS_P2;Temp;Humidity;BMP_temperature;BMP_pressure;BME280_temperature;BME280_humidity;BME280_pressure;Samples;Min_cycle;Max_cycle;Signal;HPM_P1;HPM_P2
2020/12/16 00:01:54;;;;;;;16.83;11.90;;;;;;;;;;5003426;28;20190;-74
2020/12/16 00:04:20;;;;;;;19.95;12.80;;;;;;;;;;4998763;28;20923;-74
2020/12/16 00:06:46;;;;;;;18.40;13.85;;;;;;;;;;4991473;28;20206;-74
2020/12/16 00:09:12;;;;;;;24.73;12.87;;;;;;;;;;4992578;28;20258;-74
2020/12/16 00:11:38;;;;;;;16.33;10.90;;;;;;;;;;4991532;28;20492;-74
2020/12/16 00:14:05;;;;;;;17.80;10.77;;;;;;;;;;4997489;28;20448;-74
2020/12/16 00:16:34;;;;;;;10.50;7.65;;;;;;;;;;4997052;28;20639;-74
2020/12/16 00:19:00;;;;;;;9.60;8.65;;;;;;;;;;5004463;28;20203;-74
2020/12/16 00:21:26;;;;;;;11.80;8.47;;;;;;;;;;4992670;28;20186;-74
2020/12/16 00:23:52;;;;;;;9.95;7.95;;;;;;;;;;4998737;28;20439;-73
2020/12/16 00:26:18;;;;;;;9.93;8.53;;;;;;;;;;5006217;28;20188;-74
2020/12/16 00:28:45;;;;;;;10.57;9.52;;;;;;;;;;5006486;28;20449;-74
2020/12/16 00:31:15;;;;;;;12.13;8.48;;;;;;;;;;5001991;28;20896;-74
2020/12/16 00:33:41;;;;;;;10.55;9.20;;;;;;;;;;4992405;28;20193;-75
2020/12/16 00:36:07;;;;;;;10.77;9.68;;;;;;;;;;4990872;28;20654;-72
2020/12/16 00:38:34;;;;;;;10.35;8.85;;;;;;;;;;4993313;28;20211;-75
2020/12/16 00:41:00;;;;;;;15.40;11.45;;;;;;;;;;4999494;28;20179;-75
2020/12/16 00:43:25;;;;;;;18.93;13.73;;;;;;;;;;4997240;28;20190;-75
2020/12/16 00:45:51;;;;;;;20.57;15.83;;;;;;;;;;5006581;28;20421;-76
2020/12/16 00:48:17;;;;;;;21.40;17.40;;;;;;;;;;4990231;28;20462;-75
2020/12/16 00:50:43;;;;;;;19.73;15.75;;;;;;;;;;4996749;28;20885;-75
2020/12/16 00:53:09;;;;;;;18.73;15.93;;;;;;;;;;4993535;28;20194;-74
2020/12/16 00:55:35;;;;;;;24.97;18.03;;;;;;;;;;5003193;28;20430;-75
2020/12/16 00:58:01;;;;;;;17.80;15.63;;;;;;;;;;5002073;28;21241;-75
2020/12/16 01:00:27;;;;;;;23.35;16.98;;;;;;;;;;5006984;28;20445;-75
2020/12/16 01:02:53;;;;;;;24.23;18.08;;;;;;;;;;4997427;28;20187;-74
2020/12/16 01:05:20;;;;;;;23.73;16.38;;;;;;;;;;5000786;28;20213;-75
2020/12/16 01:07:47;;;;;;;30.55;17.50;;;;;;;;;;4999179;28;20199;-74
2020/12/16 01:10:14;;;;;;;20.48;16.48;;;;;;;;;;5007685;28;20570;-73
2020/12/16 01:12:41;;;;;;;19.98;13.90;;;;;;;;;;5009269;28;20184;-74
2020/12/16 01:15:08;;;;;;;16.52;13.32;;;;;;;;;;5003084;28;20179;-74
2020/12/16 01:17:34;;;;;;;21.90;15.13;;;;;;;;;;4996526;28;20573;-74
2020/12/16 01:20:00;;;;;;;16.95;13.55;;;;;;;;;;4992974;28;20214;-73
2020/12/16 01:22:26;;;;;;;19.33;14.50;;;;;;;;;;5007660;28;20642;-75
2020/12/16 01:24:52;;;;;;;17.63;15.47;;;;;;;;;;5000531;28;20430;-74
2020/12/16 01:27:18;;;;;;;18.50;14.95;;;;;;;;;;4996833;28;20463;-73
2020/12/16 01:29:44;;;;;;;23.40;15.40;;;;;;;;;;5018922;23;20261;-79
2020/12/16 01:32:14;;;;;;;19.80;15.88;;;;;;;;;;5031669;28;20437;-78
2020/12/16 01:34:40;;;;;;;19.13;14.40;;;;;;;;;;5031123;28;20183;-79
2020/12/16 01:37:07;;;;;;;22.30;15.67;;;;;;;;;;5033193;28;20183;-79
2020/12/16 01:39:32;;;;;;;19.50;15.13;;;;;;;;;;5016090;28;20443;-78
2020/12/16 01:41:59;;;;;;;21.67;16.07;;;;;;;;;;4996929;28;20198;-78
2020/12/16 01:44:28;;;;;;;25.30;16.17;;;;;;;;;;4995965;28;20454;-79
2020/12/16 01:46:55;;;;;;;18.00;14.57;;;;;;;;;;5011064;28;20188;-78
2020/12/16 01:49:22;;;;;;;16.90;14.63;;;;;;;;;;5010508;28;20295;-79
2020/12/16 01:51:50;;;;;;;15.88;13.88;;;;;;;;;;5011573;28;20175;-79
2020/12/16 01:54:18;;;;;;;25.13;15.48;;;;;;;;;;4995685;28;20183;-78
2020/12/16 01:56:44;;;;;;;22.95;16.27;;;;;;;;;;5010275;28;20178;-79
2020/12/16 01:59:13;;;;;;;19.30;14.48;;;;;;;;;;4996754;28;20199;-79
2020/12/16 02:01:41;;;;;;;17.05;15.13;;;;;;;;;;5010342;28;20175;-78
2020/12/16 02:04:09;;;;;;;18.17;13.95;;;;;;;;;;5000450;28;20239;-79
2020/12/16 02:06:36;;;;;;;19.92;15.40;;;;;;;;;;5013283;28;20219;-78
2020/12/16 02:09:06;;;;;;;17.92;14.85;;;;;;;;;;5011171;28;20227;-79
2020/12/16 02:11:33;;;;;;;20.52;15.07;;;;;;;;;;5000272;28;20202;-78
2020/12/16 02:14:00;;;;;;;18.15;14.40;;;;;;;;;;5003407;28;20188;-77
2020/12/16 02:16:26;;;;;;;16.40;14.13;;;;;;;;;;5012384;28;20268;-79
2020/12/16 02:18:52;;;;;;;16.00;13.20;;;;;;;;;;4998178;28;20207;-77
2020/12/16 02:21:18;;;;;;;14.93;12.95;;;;;;;;;;5008698;28;20438;-78
2020/12/16 02:23:47;;;;;;;18.30;13.93;;;;;;;;;;5011048;28;20187;-78
2020/12/16 02:26:14;;;;;;;22.20;13.48;;;;;;;;;;4996483;28;20187;-79
2020/12/16 02:28:40;;;;;;;14.13;11.70;;;;;;;;;;4994874;28;20180;-77
2020/12/16 02:31:06;;;;;;;16.37;13.60;;;;;;;;;;5004199;28;20335;-78
2020/12/16 02:33:32;;;;;;;14.80;12.83;;;;;;;;;;5004653;28;20439;-78
2020/12/16 02:35:58;;;;;;;16.57;12.57;;;;;;;;;;5005157;28;20423;-79
2020/12/16 02:38:25;;;;;;;18.63;12.30;;;;;;;;;;5012428;28;20486;-79
2020/12/16 02:40:53;;;;;;;19.23;14.13;;;;;;;;;;5009913;28;20203;-79
2020/12/16 02:43:19;;;;;;;16.48;12.82;;;;;;;;;;5007796;28;20202;-79
2020/12/16 02:45:45;;;;;;;17.85;12.55;;;;;;;;;;4999453;28;20222;-79
2020/12/16 02:48:13;;;;;;;15.60;12.17;;;;;;;;;;5004868;28;20223;-78
2020/12/16 02:50:39;;;;;;;16.52;12.73;;;;;;;;;;5005245;28;20469;-78
2020/12/16 02:53:05;;;;;;;16.60;12.02;;;;;;;;;;5000347;28;20219;-79
2020/12/16 02:55:31;;;;;;;19.10;13.43;;;;;;;;;;5003328;28;20182;-78
2020/12/16 02:57:57;;;;;;;16.17;12.67;;;;;;;;;;5009535;28;20430;-79
2020/12/16 03:00:23;;;;;;;17.40;13.05;;;;;;;;;;5007725;28;20474;-78
2020/12/16 03:02:49;;;;;;;17.50;12.80;;;;;;;;;;5011271;28;20276;-79
2020/12/16 03:05:15;;;;;;;23.20;13.77;;;;;;;;;;5004312;28;20510;-79
2020/12/16 03:07:41;;;;;;;23.50;14.10;;;;;;;;;;5005086;28;20423;-79
2020/12/16 03:10:07;;;;;;;21.17;15.43;;;;;;;;;;5011854;28;20494;-79
2020/12/16 03:12:33;;;;;;;18.10;13.70;;;;;;;;;;5002814;28;20427;-78
2020/12/16 03:14:59;;;;;;;20.87;14.63;;;;;;;;;;4993206;28;20435;-78
2020/12/16 03:17:25;;;;;;;15.87;12.97;;;;;;;;;;5010177;28;20525;-79
2020/12/16 03:19:51;;;;;;;17.83;14.30;;;;;;;;;;5006196;28;20457;-79
2020/12/16 03:22:17;;;;;;;19.53;13.20;;;;;;;;;;5021450;28;20463;-77
2020/12/16 03:24:42;;;;;;;20.90;13.57;;;;;;;;;;5004635;28;20447;-79
2020/12/16 03:27:08;;;;;;;18.60;13.30;;;;;;;;;;5006657;28;20484;-79
2020/12/16 03:29:34;;;;;;;17.83;13.10;;;;;;;;;;5008624;28;20462;-76
2020/12/16 03:32:00;;;;;;;14.00;11.40;;;;;;;;;;4999709;28;20433;-78
2020/12/16 03:34:26;;;;;;;19.80;13.50;;;;;;;;;;4997915;28;20432;-78
2020/12/16 03:36:52;;;;;;;21.23;13.82;;;;;;;;;;4994854;28;20443;-77
2020/12/16 03:39:18;;;;;;;23.97;13.10;;;;;;;;;;4994519;28;20677;-78
2020/12/16 03:41:44;;;;;;;17.03;13.27;;;;;;;;;;5002347;28;20507;-77
2020/12/16 03:44:10;;;;;;;20.73;12.40;;;;;;;;;;4998978;28;20434;-78
2020/12/16 03:46:36;;;;;;;17.93;11.73;;;;;;;;;;5008109;28;20964;-77
2020/12/16 03:49:02;;;;;;;17.37;13.03;;;;;;;;;;5010512;28;20454;-78
2020/12/16 03:51:28;;;;;;;20.20;13.15;;;;;;;;;;5008949;28;20459;-78
2020/12/16 03:53:54;;;;;;;20.30;14.13;;;;;;;;;;5010090;28;20247;-78
2020/12/16 03:56:20;;;;;;;24.42;15.75;;;;;;;;;;5000125;28;20190;-76
2020/12/16 03:58:47;;;;;;;20.07;12.70;;;;;;;;;;4997591;28;20176;-78
2020/12/16 04:01:14;;;;;;;16.95;12.90;;;;;;;;;;5006105;28;20450;-78
2020/12/16 04:03:41;;;;;;;20.05;14.02;;;;;;;;;;4996660;28;20168;-77
2020/12/16 04:06:08;;;;;;;21.02;14.80;;;;;;;;;;5001858;28;20180;-78
2020/12/16 04:08:37;;;;;;;22.85;14.40;;;;;;;;;;5001056;28;20197;-78
2020/12/16 04:11:08;;;;;;;19.85;14.38;;;;;;;;;;5007942;28;20211;-79
2020/12/16 04:13:34;;;;;;;17.83;12.48;;;;;;;;;;5007906;28;20164;-77
2020/12/16 04:16:00;;;;;;;18.20;12.07;;;;;;;;;;5002573;28;20238;-77
2020/12/16 04:18:26;;;;;;;24.83;14.65;;;;;;;;;;5015291;28;20407;-78
2020/12/16 04:20:52;;;;;;;18.10;13.50;;;;;;;;;;5006913;28;20192;-78
2020/12/16 04:23:18;;;;;;;21.00;13.67;;;;;;;;;;4996051;28;20407;-78
2020/12/16 04:25:44;;;;;;;26.80;14.87;;;;;;;;;;5008678;28;20458;-78
2020/12/16 04:28:10;;;;;;;21.10;12.10;;;;;;;;;;4998943;28;20455;-78
2020/12/16 04:30:36;;;;;;;18.30;11.97;;;;;;;;;;5011577;28;20482;-77
2020/12/16 04:33:02;;;;;;;15.50;10.67;;;;;;;;;;5017576;28;20438;-77
2020/12/16 04:35:28;;;;;;;18.10;11.43;;;;;;;;;;5004766;28;20461;-78
2020/12/16 04:37:55;;;;;;;21.15;12.27;;;;;;;;;;5016233;28;20503;-80
2020/12/16 04:40:21;;;;;;;23.27;13.27;;;;;;;;;;5002694;28;20284;-79
2020/12/16 04:42:59;;;;;;;21.33;14.07;;;;;;;;;;5000845;28;20183;-78
2020/12/16 04:45:25;;;;;;;19.95;12.63;;;;;;;;;;5028915;28;20184;-79
2020/12/16 04:47:51;;;;;;;21.42;11.65;;;;;;;;;;5014712;28;20184;-77
2020/12/16 04:50:18;;;;;;;17.00;11.63;;;;;;;;;;5014992;28;20219;-77
2020/12/16 04:52:46;;;;;;;17.23;12.30;;;;;;;;;;5013496;28;20426;-78
2020/12/16 04:55:12;;;;;;;16.25;12.77;;;;;;;;;;5014122;28;20187;-76
2020/12/16 04:57:38;;;;;;;17.88;13.60;;;;;;;;;;5012070;28;20183;-78
2020/12/16 05:00:04;;;;;;;17.63;12.30;;;;;;;;;;5010624;28;20216;-78
2020/12/16 05:02:30;;;;;;;18.55;13.00;;;;;;;;;;5004601;28;20203;-78
2020/12/16 05:04:56;;;;;;;19.80;13.10;;;;;;;;;;4995349;28;20204;-78
2020/12/16 05:07:29;;;;;;;22.27;13.17;;;;;;;;;;5007679;28;20438;-79
2020/12/16 05:09:56;;;;;;;19.20;13.27;;;;;;;;;;4997711;28;20471;-77
2020/12/16 05:12:22;;;;;;;19.55;13.35;;;;;;;;;;5008155;28;20190;-79
2020/12/16 05:14:48;;;;;;;30.35;13.57;;;;;;;;;;5006177;28;20187;-76
2020/12/16 05:17:14;;;;;;;159.00;23.17;;;;;;;;;;5022070;28;20182;-77
2020/12/16 05:19:47;;;;;;;421.85;36.90;;;;;;;;;;5013171;28;20457;-77
2020/12/16 05:22:28;;;;;;;206.48;23.10;;;;;;;;;;5002322;28;20247;-77
2020/12/16 05:24:58;;;;;;;220.38;23.05;;;;;;;;;;5000699;28;20740;-77
2020/12/16 05:27:31;;;;;;;136.30;16.98;;;;;;;;;;5004354;28;20195;-76
2020/12/16 05:29:57;;;;;;;88.32;12.90;;;;;;;;;;4994837;28;20219;-78
2020/12/16 05:32:27;;;;;;;93.33;12.30;;;;;;;;;;5001256;28;20187;-78
2020/12/16 05:34:55;;;;;;;126.32;14.40;;;;;;;;;;4998175;28;20532;-77
2020/12/16 05:37:41;;;;;;;45.25;9.57;;;;;;;;;;5006269;28;20175;-77
2020/12/16 05:40:07;;;;;;;28.85;8.85;;;;;;;;;;4999553;28;20430;-77
2020/12/16 05:42:33;;;;;;;17.30;8.00;;;;;;;;;;4986326;28;20576;-77
2020/12/16 05:45:07;;;;;;;47.42;8.55;;;;;;;;;;4995087;28;20427;-77
2020/12/16 05:47:34;;;;;;;65.00;10.13;;;;;;;;;;4992527;28;20183;-77
2020/12/16 05:50:00;;;;;;;95.70;12.30;;;;;;;;;;5001387;28;20424;-78
2020/12/16 05:52:26;;;;;;;91.85;12.35;;;;;;;;;;4991818;28;20727;-79
2020/12/16 05:54:52;;;;;;;36.20;9.43;;;;;;;;;;4982486;28;20184;-78
2020/12/16 05:57:18;;;;;;;28.92;9.55;;;;;;;;;;4980982;28;20416;-79
2020/12/16 06:00:00;;;;;;;14.15;9.15;;;;;;;;;;4982741;28;20403;-78
2020/12/16 06:02:33;;;;;;;11.25;9.02;;;;;;;;;;4980523;28;20199;-77
2020/12/16 06:04:58;;;;;;;16.00;11.52;;;;;;;;;;4990035;28;20570;-79
2020/12/16 06:07:27;;;;;;;17.13;12.90;;;;;;;;;;5000748;28;20230;-78
2020/12/16 06:09:52;;;;;;;16.50;12.55;;;;;;;;;;5000247;28;20579;-78
2020/12/16 06:12:18;;;;;;;22.90;13.80;;;;;;;;;;5002396;28;20234;-77
2020/12/16 06:14:48;;;;;;;21.57;13.87;;;;;;;;;;4995910;28;20436;-78
2020/12/16 06:17:15;;;;;;;21.70;13.40;;;;;;;;;;4982757;28;20931;-76
2020/12/16 06:19:44;;;;;;;25.10;15.63;;;;;;;;;;4982317;28;20192;-78
2020/12/16 06:22:11;;;;;;;21.52;14.60;;;;;;;;;;4991642;28;20212;-79
2020/12/16 06:24:43;;;;;;;22.90;15.23;;;;;;;;;;5008568;28;20183;-78
2020/12/16 06:27:10;;;;;;;25.67;14.32;;;;;;;;;;5000561;28;20655;-79
2020/12/16 06:29:38;;;;;;;29.77;16.73;;;;;;;;;;4997455;28;20218;-80
2020/12/16 06:32:07;;;;;;;27.73;17.80;;;;;;;;;;4982256;28;20180;-79
2020/12/16 06:34:35;;;;;;;30.73;16.58;;;;;;;;;;4982288;28;20267;-79
2020/12/16 06:37:01;;;;;;;24.85;15.70;;;;;;;;;;4982742;28;20177;-78
2020/12/16 06:39:28;;;;;;;29.98;16.63;;;;;;;;;;4984736;28;20199;-79
2020/12/16 06:41:55;;;;;;;30.63;17.13;;;;;;;;;;5001228;28;20182;-80
2020/12/16 06:44:21;;;;;;;36.60;18.73;;;;;;;;;;5000746;28;20187;-79
2020/12/16 06:46:49;;;;;;;32.92;18.27;;;;;;;;;;4999591;28;20200;-79
2020/12/16 06:49:14;;;;;;;31.30;18.33;;;;;;;;;;4997787;28;20207;-79
2020/12/16 06:51:42;;;;;;;27.40;17.33;;;;;;;;;;4996864;28;20183;-77
2020/12/16 06:54:12;;;;;;;33.72;17.35;;;;;;;;;;4992315;28;20459;-78
2020/12/16 06:56:39;;;;;;;26.00;16.85;;;;;;;;;;4998969;28;20179;-78
2020/12/16 06:59:05;;;;;;;26.85;16.38;;;;;;;;;;5000398;28;20207;-80
2020/12/16 07:01:32;;;;;;;26.58;15.63;;;;;;;;;;4983823;28;20199;-78
2020/12/16 07:03:58;;;;;;;24.42;14.88;;;;;;;;;;4981547;28;20542;-77
2020/12/16 07:06:30;;;;;;;24.05;14.82;;;;;;;;;;4990592;28;20188;-79
2020/12/16 07:09:32;;;;;;;20.63;14.43;;;;;;;;;;4994702;28;20207;-78
2020/12/16 07:11:58;;;;;;;16.90;13.23;;;;;;;;;;4997069;28;20810;-78
2020/12/16 07:14:34;;;;;;;19.02;12.55;;;;;;;;;;4991651;28;20207;-76
2020/12/16 07:17:10;;;;;;;16.48;12.23;;;;;;;;;;4981030;28;20200;-79
2020/12/16 07:19:36;;;;;;;17.63;12.95;;;;;;;;;;4995435;28;20206;-77
2020/12/16 07:22:15;;;;;;;18.60;12.95;;;;;;;;;;4998205;28;20677;-78
2020/12/16 07:24:46;;;;;;;17.67;11.85;;;;;;;;;;4992157;28;20210;-79
2020/12/16 07:27:14;;;;;;;25.05;13.65;;;;;;;;;;4981716;28;20283;-78
2020/12/16 07:29:52;;;;;;;15.15;13.20;;;;;;;;;;5007180;23;20235;-74
2020/12/16 07:32:20;;;;;;;23.60;12.95;;;;;;;;;;4987962;28;20278;-74
2020/12/16 07:34:50;;;;;;;26.98;13.40;;;;;;;;;;4989153;28;20214;-73
2020/12/16 07:37:18;;;;;;;18.00;12.85;;;;;;;;;;4982030;28;20215;-74
2020/12/16 07:40:10;;;;;;;20.00;12.82;;;;;;;;;;4982451;28;20222;-74
2020/12/16 07:42:36;;;;;;;18.30;13.68;;;;;;;;;;4983505;28;20254;-73
2020/12/16 07:45:07;;;;;;;22.80;14.30;;;;;;;;;;4981242;28;20246;-74
2020/12/16 07:47:33;;;;;;;23.98;15.70;;;;;;;;;;4981043;28;20263;-73
2020/12/16 07:49:59;;;;;;;21.45;15.80;;;;;;;;;;4989593;28;20215;-73
2020/12/16 07:52:26;;;;;;;30.70;17.58;;;;;;;;;;4989516;28;20190;-73
2020/12/16 07:54:52;;;;;;;24.90;16.15;;;;;;;;;;4990496;28;20195;-73
2020/12/16 07:57:27;;;;;;;21.23;16.15;;;;;;;;;;4989982;28;20183;-73
2020/12/16 07:59:53;;;;;;;22.30;13.60;;;;;;;;;;4984740;28;20302;-73
2020/12/16 08:02:19;;;;;;;17.77;12.70;;;;;;;;;;4988947;28;20266;-73
2020/12/16 08:04:54;;;;;;;19.63;14.10;;;;;;;;;;4989467;28;20457;-73
2020/12/16 08:07:20;;;;;;;23.75;14.27;;;;;;;;;;4989974;28;20635;-73
2020/12/16 08:10:05;;;;;;;24.27;15.13;;;;;;;;;;4993571;28;20234;-73
2020/12/16 08:12:32;;;;;;;22.88;16.45;;;;;;;;;;4993360;28;20266;-73
2020/12/16 08:15:16;;;;;;;26.38;17.23;;;;;;;;;;4994162;28;20250;-73
2020/12/16 08:17:42;;;;;;;55.67;17.10;;;;;;;;;;4993375;28;20186;-73
2020/12/16 08:20:09;;;;;;;17.25;12.68;;;;;;;;;;4992507;28;20266;-73
2020/12/16 08:22:37;;;;;;;21.10;12.75;;;;;;;;;;4992477;28;20217;-73
2020/12/16 08:25:08;;;;;;;19.92;12.40;;;;;;;;;;4993567;28;20712;-73
2020/12/16 08:27:34;;;;;;;17.52;13.68;;;;;;;;;;4986789;28;20191;-73
2020/12/16 08:30:01;;;;;;;23.63;14.95;;;;;;;;;;4986847;28;20633;-73
2020/12/16 08:32:30;;;;;;;21.02;12.77;;;;;;;;;;4994061;28;20222;-73
2020/12/16 08:34:57;;;;;;;21.70;14.75;;;;;;;;;;4992885;28;20222;-74
2020/12/16 08:37:23;;;;;;;24.30;14.20;;;;;;;;;;4991238;28;20670;-73
2020/12/16 08:39:50;;;;;;;25.35;16.02;;;;;;;;;;4988563;28;20290;-73
2020/12/16 08:42:22;;;;;;;29.98;18.58;;;;;;;;;;4993286;28;20191;-74
2020/12/16 08:44:48;;;;;;;40.83;20.75;;;;;;;;;;4993847;28;20589;-74
2020/12/16 08:47:25;;;;;;;33.00;19.48;;;;;;;;;;4992794;28;20202;-73
2020/12/16 08:49:52;;;;;;;30.52;17.15;;;;;;;;;;4993052;28;20625;-74
2020/12/16 08:52:18;;;;;;;41.80;22.92;;;;;;;;;;4992095;28;20524;-74
2020/12/16 08:54:44;;;;;;;37.03;20.77;;;;;;;;;;4989479;28;20278;-74
2020/12/16 08:57:11;;;;;;;39.83;21.77;;;;;;;;;;4993478;28;20179;-74
2020/12/16 08:59:37;;;;;;;35.38;20.50;;;;;;;;;;4993235;28;20271;-73
2020/12/16 09:02:03;;;;;;;41.88;20.48;;;;;;;;;;4989621;28;20796;-73
2020/12/16 09:04:30;;;;;;;32.90;19.97;;;;;;;;;;4983213;28;20187;-73
2020/12/16 09:07:06;;;;;;;38.22;21.02;;;;;;;;;;4993117;28;20443;-73
2020/12/16 09:09:33;;;;;;;38.00;19.55;;;;;;;;;;4992718;28;20237;-73
2020/12/16 09:11:59;;;;;;;38.20;20.20;;;;;;;;;;4992273;28;20183;-73
2020/12/16 09:14:25;;;;;;;35.85;19.38;;;;;;;;;;4992828;28;20267;-73
2020/12/16 09:16:51;;;;;;;36.95;19.58;;;;;;;;;;4988569;28;20183;-74
2020/12/16 09:19:18;;;;;;;34.00;19.58;;;;;;;;;;4988966;28;20183;-73
2020/12/16 09:21:44;;;;;;;42.42;19.75;;;;;;;;;;4990178;28;20183;-74
2020/12/16 09:24:10;;;;;;;38.08;20.70;;;;;;;;;;4985376;28;20184;-74
2020/12/16 09:26:46;;;;;;;32.10;18.05;;;;;;;;;;4991367;28;20175;-74
2020/12/16 09:29:16;;;;;;;35.88;19.63;;;;;;;;;;4982214;28;20258;-73
2020/12/16 09:31:42;;;;;;;31.70;19.58;;;;;;;;;;4987330;28;20188;-74
2020/12/16 09:34:08;;;;;;;35.97;21.58;;;;;;;;;;4992397;28;20173;-74
2020/12/16 09:36:34;;;;;;;33.92;19.73;;;;;;;;;;4992619;28;20179;-74
2020/12/16 09:39:01;;;;;;;29.80;19.67;;;;;;;;;;4975228;28;20259;-73
2020/12/16 09:41:27;;;;;;;29.42;18.90;;;;;;;;;;4972782;28;20193;-73
2020/12/16 09:43:53;;;;;;;31.05;21.23;;;;;;;;;;4979453;28;20188;-73
2020/12/16 09:46:22;;;;;;;31.95;22.45;;;;;;;;;;4984458;28;20207;-73
2020/12/16 09:48:49;;;;;;;32.47;20.90;;;;;;;;;;4988694;28;20187;-73
2020/12/16 09:51:19;;;;;;;32.33;19.20;;;;;;;;;;4990726;28;20234;-73
2020/12/16 09:53:45;;;;;;;29.08;19.88;;;;;;;;;;4991343;28;20693;-73
2020/12/16 09:56:24;;;;;;;31.45;18.45;;;;;;;;;;4991489;28;20210;-73
2020/12/16 09:58:50;;;;;;;30.58;20.42;;;;;;;;;;4991989;28;20241;-73
2020/12/16 10:01:16;;;;;;;23.77;17.15;;;;;;;;;;4987206;28;20761;-73
2020/12/16 10:03:42;;;;;;;32.17;19.92;;;;;;;;;;4986474;28;20195;-73
2020/12/16 10:06:15;;;;;;;24.15;17.63;;;;;;;;;;4990149;28;20663;-74
2020/12/16 10:08:42;;;;;;;23.88;16.30;;;;;;;;;;4988565;28;20180;-73
2020/12/16 10:11:11;;;;;;;25.55;17.83;;;;;;;;;;4988851;28;20327;-73
2020/12/16 10:13:38;;;;;;;23.38;17.15;;;;;;;;;;4990765;28;20183;-73
2020/12/16 10:16:04;;;;;;;25.05;17.95;;;;;;;;;;4989870;28;20187;-73
2020/12/16 10:18:30;;;;;;;25.73;18.08;;;;;;;;;;4987540;28;20190;-73
2020/12/16 10:20:56;;;;;;;23.88;16.00;;;;;;;;;;4990188;28;20203;-73
2020/12/16 10:23:21;;;;;;;18.90;15.10;;;;;;;;;;4990423;28;20187;-73
2020/12/16 10:25:47;;;;;;;19.27;14.07;;;;;;;;;;4991435;28;20926;-73
2020/12/16 10:28:13;;;;;;;20.00;16.05;;;;;;;;;;4985071;28;20424;-73
2020/12/16 10:30:39;;;;;;;17.97;14.90;;;;;;;;;;4985204;28;20212;-73
2020/12/16 10:33:05;;;;;;;16.90;12.37;;;;;;;;;;4970748;28;20423;-73
2020/12/16 10:35:31;;;;;;;15.07;13.50;;;;;;;;;;4988158;28;20433;-73
2020/12/16 10:37:57;;;;;;;15.93;13.18;;;;;;;;;;4991485;28;20417;-73
2020/12/16 10:40:25;;;;;;;16.73;13.95;;;;;;;;;;4987897;28;20234;-73
2020/12/16 10:42:51;;;;;;;15.52;13.77;;;;;;;;;;4982383;28;20266;-73
2020/12/16 10:45:17;;;;;;;18.50;14.70;;;;;;;;;;4991616;28;20271;-72
2020/12/16 10:47:43;;;;;;;17.10;13.90;;;;;;;;;;4990201;28;20426;-72
2020/12/16 10:50:09;;;;;;;12.77;11.57;;;;;;;;;;4991273;28;20675;-73
2020/12/16 10:52:35;;;;;;;12.50;11.20;;;;;;;;;;4989766;28;20423;-72
2020/12/16 10:55:01;;;;;;;16.00;12.03;;;;;;;;;;4990902;28;20181;-72
2020/12/16 10:57:27;;;;;;;12.20;10.90;;;;;;;;;;4989784;28;20426;-72
2020/12/16 10:59:53;;;;;;;13.50;11.65;;;;;;;;;;4986248;28;20463;-73
2020/12/16 11:02:19;;;;;;;11.20;9.70;;;;;;;;;;4988305;28;20198;-72
2020/12/16 11:04:45;;;;;;;11.32;10.05;;;;;;;;;;4988545;28;20431;-72
2020/12/16 11:07:11;;;;;;;13.47;10.90;;;;;;;;;;4990294;28;20185;-72
2020/12/16 11:09:37;;;;;;;15.95;12.30;;;;;;;;;;4989277;28;21015;-72
2020/12/16 11:12:04;;;;;;;12.53;11.10;;;;;;;;;;4981685;28;20188;-72
2020/12/16 11:14:29;;;;;;;11.52;10.15;;;;;;;;;;4990196;28;20430;-72
2020/12/16 11:16:55;;;;;;;12.30;10.33;;;;;;;;;;4985796;28;20681;-72
2020/12/16 11:19:22;;;;;;;12.20;10.90;;;;;;;;;;4990522;28;20427;-72
2020/12/16 11:21:49;;;;;;;11.68;10.30;;;;;;;;;;4984845;28;20469;-72
2020/12/16 11:24:17;;;;;;;10.07;9.07;;;;;;;;;;4987424;28;20194;-72
2020/12/16 11:26:45;;;;;;;11.27;10.23;;;;;;;;;;4988937;28;20198;-72
2020/12/16 11:29:11;;;;;;;10.77;9.68;;;;;;;;;;4983103;28;20170;-72
2020/12/16 11:31:44;;;;;;;11.10;9.90;;;;;;;;;;4988699;28;20200;-71
2020/12/16 11:34:11;;;;;;;11.50;8.00;;;;;;;;;;4990288;28;20414;-72
2020/12/16 11:36:40;;;;;;;8.63;7.78;;;;;;;;;;4990262;28;20178;-72
2020/12/16 11:39:07;;;;;;;8.55;7.75;;;;;;;;;;4989888;28;20177;-72
2020/12/16 11:41:33;;;;;;;9.50;7.97;;;;;;;;;;4990530;28;20191;-72
2020/12/16 11:43:59;;;;;;;9.15;8.07;;;;;;;;;;4988042;28;20180;-72
2020/12/16 11:46:29;;;;;;;8.90;7.82;;;;;;;;;;4989505;28;20596;-72
2020/12/16 11:48:56;;;;;;;8.70;7.70;;;;;;;;;;4990545;28;20180;-72
2020/12/16 11:51:22;;;;;;;7.35;6.65;;;;;;;;;;4989957;28;20585;-72
2020/12/16 11:53:48;;;;;;;9.60;8.70;;;;;;;;;;4986736;28;20176;-73
2020/12/16 11:56:14;;;;;;;8.30;7.50;;;;;;;;;;4989187;28;20431;-73
2020/12/16 11:58:40;;;;;;;7.73;7.03;;;;;;;;;;4989460;28;21009;-72
2020/12/16 12:01:06;;;;;;;7.40;6.50;;;;;;;;;;4989288;28;20450;-73
2020/12/16 12:03:31;;;;;;;7.90;7.18;;;;;;;;;;4985443;28;20440;-72
2020/12/16 12:05:57;;;;;;;8.67;7.87;;;;;;;;;;4987641;28;20180;-73
2020/12/16 12:08:23;;;;;;;7.90;7.20;;;;;;;;;;4989818;28;20422;-73
2020/12/16 12:10:49;;;;;;;8.23;6.88;;;;;;;;;;4989745;28;20506;-73
2020/12/16 12:13:17;;;;;;;7.40;6.80;;;;;;;;;;4989386;28;20215;-73
2020/12/16 12:15:43;;;;;;;9.07;7.05;;;;;;;;;;4982335;28;20451;-73
2020/12/16 12:18:09;;;;;;;6.70;6.10;;;;;;;;;;4984332;28;20186;-73
2020/12/16 12:20:35;;;;;;;8.23;7.43;;;;;;;;;;4974995;28;20451;-73
2020/12/16 12:23:01;;;;;;;7.27;6.57;;;;;;;;;;4984742;28;20597;-73
2020/12/16 12:25:27;;;;;;;8.98;7.68;;;;;;;;;;4984284;28;20445;-73
2020/12/16 12:27:53;;;;;;;7.72;6.90;;;;;;;;;;4985800;28;20624;-72
2020/12/16 12:30:19;;;;;;;9.07;8.27;;;;;;;;;;4988288;28;20223;-73
2020/12/16 12:32:45;;;;;;;8.40;7.13;;;;;;;;;;4989893;28;20423;-73
2020/12/16 12:35:11;;;;;;;7.10;6.40;;;;;;;;;;4988567;28;20451;-73
2020/12/16 12:37:37;;;;;;;8.47;7.67;;;;;;;;;;4988788;28;20442;-73
2020/12/16 12:40:03;;;;;;;8.63;7.83;;;;;;;;;;4989692;28;20450;-73
2020/12/16 12:42:29;;;;;;;7.63;6.88;;;;;;;;;;4989978;28;20423;-73
2020/12/16 12:44:55;;;;;;;7.20;6.50;;;;;;;;;;4989625;28;20673;-73
2020/12/16 12:47:21;;;;;;;8.07;7.25;;;;;;;;;;4988553;28;20426;-73
2020/12/16 12:49:47;;;;;;;7.07;6.38;;;;;;;;;;4983900;28;20719;-73
2020/12/16 12:52:13;;;;;;;8.57;6.97;;;;;;;;;;4978620;28;20179;-72
2020/12/16 12:54:39;;;;;;;7.67;6.80;;;;;;;;;;4992351;28;20427;-72
2020/12/16 12:57:05;;;;;;;7.07;6.50;;;;;;;;;;4993164;28;20423;-72
2020/12/16 12:59:31;;;;;;;6.83;6.20;;;;;;;;;;4993414;28;20486;-72
2020/12/16 13:01:57;;;;;;;7.53;6.70;;;;;;;;;;4989414;28;20514;-72
2020/12/16 13:04:23;;;;;;;8.23;6.68;;;;;;;;;;4992781;28;20758;-72
2020/12/16 13:06:49;;;;;;;7.03;6.40;;;;;;;;;;4985405;28;20183;-72
2020/12/16 13:09:15;;;;;;;6.85;6.15;;;;;;;;;;4991736;28;20460;-72
2020/12/16 13:11:41;;;;;;;6.63;5.93;;;;;;;;;;4993018;28;20672;-72
2020/12/16 13:14:07;;;;;;;7.03;6.43;;;;;;;;;;4992302;28;20183;-72
2020/12/16 13:16:32;;;;;;;5.90;5.40;;;;;;;;;;4987087;28;20187;-72
2020/12/16 13:18:58;;;;;;;7.30;6.60;;;;;;;;;;4977835;28;20509;-72
2020/12/16 13:21:24;;;;;;;8.10;7.23;;;;;;;;;;4990882;28;20458;-72
2020/12/16 13:23:50;;;;;;;6.35;5.75;;;;;;;;;;4984793;28;20448;-73
2020/12/16 13:26:16;;;;;;;6.13;5.63;;;;;;;;;;4992174;28;20274;-72
2020/12/16 13:28:42;;;;;;;8.60;7.23;;;;;;;;;;4992434;28;20429;-73
2020/12/16 13:31:08;;;;;;;8.63;7.87;;;;;;;;;;4991811;28;20557;-72
2020/12/16 13:33:34;;;;;;;6.40;5.80;;;;;;;;;;5007567;28;20429;-72
2020/12/16 13:36:00;;;;;;;6.33;5.83;;;;;;;;;;4991143;28;20180;-73
2020/12/16 13:38:27;;;;;;;7.85;7.05;;;;;;;;;;4989039;28;20415;-72
2020/12/16 13:40:53;;;;;;;6.45;5.47;;;;;;;;;;4991637;28;20213;-72
2020/12/16 13:43:19;;;;;;;9.18;7.00;;;;;;;;;;5011708;23;20319;-77
2020/12/16 13:45:46;;;;;;;6.57;5.93;;;;;;;;;;4993803;28;20190;-77
2020/12/16 13:48:12;;;;;;;6.57;5.97;;;;;;;;;;4994529;28;20191;-77
2020/12/16 13:50:38;;;;;;;6.70;6.00;;;;;;;;;;4997180;28;20224;-78
2020/12/16 13:53:04;;;;;;;8.05;6.70;;;;;;;;;;4996029;28;20235;-78
2020/12/16 13:55:30;;;;;;;6.03;5.43;;;;;;;;;;4997323;28;20171;-77
2020/12/16 13:57:56;;;;;;;7.20;6.57;;;;;;;;;;4983356;28;20423;-78
2020/12/16 14:00:22;;;;;;;8.37;6.43;;;;;;;;;;4977830;28;20682;-78
2020/12/16 14:02:48;;;;;;;6.40;5.80;;;;;;;;;;4977181;28;20863;-77
2020/12/16 14:05:14;;;;;;;7.07;6.37;;;;;;;;;;4987130;28;20487;-78
2020/12/16 14:07:40;;;;;;;10.70;7.50;;;;;;;;;;4976624;28;20459;-77
2020/12/16 14:10:06;;;;;;;8.02;7.10;;;;;;;;;;4976070;28;20467;-78
2020/12/16 14:12:32;;;;;;;7.70;6.90;;;;;;;;;;4976462;28;20200;-78
2020/12/16 14:14:58;;;;;;;7.57;6.90;;;;;;;;;;4976267;28;20180;-77
2020/12/16 14:17:24;;;;;;;7.17;6.50;;;;;;;;;;4985977;28;20191;-78
2020/12/16 14:19:52;;;;;;;7.20;6.50;;;;;;;;;;4977100;28;20416;-77
2020/12/16 14:22:18;;;;;;;10.02;5.57;;;;;;;;;;4994027;28;20462;-78
2020/12/16 14:24:44;;;;;;;6.80;6.30;;;;;;;;;;4977091;28;20181;-78